Time;durP1;ratioP1;P1;durP2;ratioP2;P2;SDS_P1;SDS_P2;PMS_P1;PMS_P2;Temp;Humidity;BMP_temperature;BMP_pressure;BME280_temperature;BME280_humidity;BME280_pressure;Samples;Min_cycle;Max_cycle;Signal;HPM_P1;HPM_P2
2022/04/08 00:01:29;;;;;;;45.78;26.20;;;12.00;95.10;;;;;;5050433;28;20040;-73
2022/04/08 00:03:55;;;;;;;43.60;25.55;;;11.80;95.20;;;;;;5043104;28;20526;-73
2022/04/08 00:06:23;;;;;;;40.65;25.23;;;11.80;95.30;;;;;;5050321;28;20116;-73
2022/04/08 00:08:49;;;;;;;43.53;27.48;;;11.70;95.50;;;;;;5051204;28;20502;-73
2022/04/08 00:11:15;;;;;;;43.50;27.40;;;11.70;95.50;;;;;;5050180;28;20037;-73
2022/04/08 00:13:41;;;;;;;45.75;27.00;;;11.60;95.70;;;;;;5041954;28;20085;-73
2022/04/08 00:16:07;;;;;;;41.53;27.23;;;11.70;95.70;;;;;;5043611;28;20785;-73
2022/04/08 00:18:33;;;;;;;44.22;28.48;;;11.60;95.70;;;;;;5047122;28;20390;-73
2022/04/08 00:20:59;;;;;;;38.05;26.65;;;11.60;95.80;;;;;;5050975;28;20116;-74
2022/04/08 00:23:25;;;;;;;38.75;26.90;;;11.60;96.00;;;;;;5049558;28;20115;-73
2022/04/08 00:25:51;;;;;;;40.25;26.73;;;11.60;96.20;;;;;;5047980;28;20386;-73
2022/04/08 00:28:17;;;;;;;40.72;26.85;;;11.60;96.30;;;;;;5050266;28;20037;-73
2022/04/08 00:30:42;;;;;;;47.10;29.10;;;11.50;96.30;;;;;;5044220;28;20132;-73
2022/04/08 00:33:08;;;;;;;46.13;29.70;;;11.50;96.40;;;;;;5041024;28;20479;-73
2022/04/08 00:35:33;;;;;;;46.53;29.83;;;11.40;96.60;;;;;;5041622;28;20063;-73
2022/04/08 00:37:59;;;;;;;47.58;30.45;;;11.50;96.70;;;;;;5047458;28;20025;-73
2022/04/08 00:40:25;;;;;;;47.13;29.80;;;11.50;96.70;;;;;;5049634;28;20033;-74
2022/04/08 00:42:50;;;;;;;44.65;28.92;;;11.40;96.90;;;;;;5048145;28;20036;-73
2022/04/08 00:45:16;;;;;;;44.65;29.60;;;11.40;97.00;;;;;;5043885;28;20116;-73
2022/04/08 00:47:44;;;;;;;47.45;30.52;;;11.40;97.10;;;;;;5045422;28;20458;-73
2022/04/08 00:50:13;;;;;;;51.72;31.70;;;11.30;97.30;;;;;;5045836;28;20047;-73
2022/04/08 00:52:42;;;;;;;48.08;30.45;;;11.30;97.60;;;;;;5047460;28;20451;-73
2022/04/08 00:55:10;;;;;;;48.45;27.85;;;11.30;97.60;;;;;;5049259;28;20029;-73
2022/04/08 00:57:36;;;;;;;46.65;30.27;;;11.20;97.60;;;;;;5050776;28;20437;-73
2022/04/08 01:00:05;;;;;;;50.20;29.90;;;11.20;97.70;;;;;;5047998;28;20032;-73
2022/04/08 01:02:31;;;;;;;47.80;32.42;;;11.20;97.80;;;;;;5050151;28;20552;-73
2022/04/08 01:04:57;;;;;;;49.15;30.75;;;11.40;97.70;;;;;;5048712;28;20033;-73
2022/04/08 01:07:23;;;;;;;46.47;31.02;;;11.30;97.70;;;;;;5044973;28;20391;-73
2022/04/08 01:09:54;;;;;;;47.33;30.52;;;11.20;97.80;;;;;;5049048;28;20068;-73
2022/04/08 01:12:20;;;;;;;52.47;31.45;;;11.20;98.00;;;;;;5047285;28;20032;-73
2022/04/08 01:14:46;;;;;;;48.40;30.08;;;11.20;97.80;;;;;;5047787;28;20039;-73
2022/04/08 01:17:12;;;;;;;47.90;31.70;;;11.00;98.10;;;;;;5045791;28;20051;-73
2022/04/08 01:19:37;;;;;;;49.03;31.67;;;11.10;98.00;;;;;;5049285;28;20479;-73
2022/04/08 01:22:04;;;;;;;51.60;28.52;;;11.00;98.10;;;;;;5041027;28;20158;-73
2022/04/08 01:24:32;;;;;;;46.40;30.35;;;11.00;98.10;;;;;;5042890;28;20036;-73
2022/04/08 01:26:57;;;;;;;48.17;29.90;;;10.90;98.00;;;;;;5039174;28;20438;-73
2022/04/08 01:29:23;;;;;;;49.53;32.25;;;11.00;98.10;;;;;;5050490;28;20028;-73
2022/04/08 01:31:49;;;;;;;48.38;29.25;;;10.90;98.20;;;;;;5045173;28;20042;-73
2022/04/08 01:34:14;;;;;;;45.03;30.83;;;11.00;98.20;;;;;;5048532;28;20112;-73
2022/04/08 01:36:40;;;;;;;47.92;30.33;;;11.10;98.10;;;;;;5044075;28;20387;-73
2022/04/08 01:39:06;;;;;;;47.30;30.20;;;11.00;98.20;;;;;;5047047;28;20068;-73
2022/04/08 01:41:32;;;;;;;47.45;30.40;;;11.00;98.40;;;;;;5048878;28;20943;-73
2022/04/08 01:43:58;;;;;;;48.55;31.42;;;11.00;98.50;;;;;;5050006;28;20127;-73
2022/04/08 01:46:24;;;;;;;43.97;29.58;;;11.10;98.30;;;;;;5047273;28;20051;-73
2022/04/08 01:48:53;;;;;;;49.65;29.02;;;10.90;98.50;;;;;;5047346;28;20033;-73
2022/04/08 01:51:19;;;;;;;44.75;29.50;;;10.90;98.50;;;;;;5048532;28;20028;-73
2022/04/08 01:53:45;;;;;;;49.70;29.55;;;10.80;98.60;;;;;;5050057;28;20114;-73
2022/04/08 01:56:11;;;;;;;46.30;28.17;;;10.80;98.80;;;;;;5045034;28;20484;-73
2022/04/08 01:58:37;;;;;;;47.00;30.83;;;10.60;98.90;;;;;;5047424;28;20552;-74
2022/04/08 02:01:03;;;;;;;50.10;30.02;;;10.60;99.00;;;;;;5047652;28;20025;-73
2022/04/08 02:03:29;;;;;;;52.72;31.35;;;10.60;99.00;;;;;;5042942;28;20040;-73
2022/04/08 02:05:54;;;;;;;49.97;29.55;;;10.50;99.10;;;;;;5044076;28;20033;-73
2022/04/08 02:08:21;;;;;;;45.03;28.73;;;10.60;99.10;;;;;;5044672;28;20040;-73
2022/04/08 02:10:46;;;;;;;47.47;29.30;;;10.60;99.10;;;;;;5048266;28;20059;-73
2022/04/08 02:13:12;;;;;;;49.25;30.92;;;10.60;99.00;;;;;;5043711;28;20490;-73
2022/04/08 02:15:38;;;;;;;51.28;29.95;;;10.60;99.20;;;;;;5043697;28;20028;-73
2022/04/08 02:18:04;;;;;;;53.13;33.15;;;10.50;99.30;;;;;;5046879;28;20526;-73
2022/04/08 02:20:31;;;;;;;43.88;29.58;;;10.60;99.30;;;;;;5049599;28;20096;-73
2022/04/08 02:22:58;;;;;;;48.17;30.38;;;10.50;99.30;;;;;;5047638;28;20060;-73
2022/04/08 02:25:25;;;;;;;43.97;28.33;;;10.50;99.30;;;;;;5047352;28;20052;-73
2022/04/08 02:27:51;;;;;;;47.30;30.25;;;10.40;99.40;;;;;;5048314;28;20068;-73
2022/04/08 02:30:17;;;;;;;50.25;32.28;;;10.40;99.50;;;;;;5047671;28;20041;-73
2022/04/08 02:32:42;;;;;;;44.45;28.73;;;10.40;99.60;;;;;;5040782;28;20142;-73
2022/04/08 02:35:09;;;;;;;51.63;29.23;;;10.30;99.70;;;;;;5046431;28;20121;-73
2022/04/08 02:37:35;;;;;;;47.42;29.83;;;10.30;99.90;;;;;;5048759;28;20037;-73
2022/04/08 02:40:00;;;;;;;51.75;31.05;;;10.30;99.90;;;;;;5047987;28;20054;-74
2022/04/08 02:42:30;;;;;;;49.03;29.67;;;10.20;99.90;;;;;;5049696;28;20021;-73
2022/04/08 02:44:56;;;;;;;48.55;30.00;;;10.20;99.90;;;;;;5038877;28;20442;-73
2022/04/08 02:47:22;;;;;;;47.65;29.70;;;10.30;99.90;;;;;;5041661;28;20396;-73
2022/04/08 02:49:47;;;;;;;45.22;28.20;;;10.30;99.90;;;;;;5049784;28;20033;-73
2022/04/08 02:52:13;;;;;;;50.85;29.77;;;10.20;99.90;;;;;;5047928;28;20030;-73
2022/04/08 02:54:38;;;;;;;48.90;30.25;;;10.20;99.90;;;;;;5043466;28;20479;-73
2022/04/08 02:57:04;;;;;;;51.78;31.08;;;10.30;99.90;;;;;;5050133;28;20037;-73
2022/04/08 02:59:30;;;;;;;48.33;29.88;;;10.30;99.90;;;;;;5041495;28;20040;-73
2022/04/08 03:01:55;;;;;;;51.20;31.17;;;10.30;99.90;;;;;;5053023;28;20514;-73
2022/04/08 03:04:21;;;;;;;49.17;30.00;;;10.40;99.90;;;;;;5038414;28;20158;-73
2022/04/08 03:06:47;;;;;;;43.45;27.90;;;10.30;99.90;;;;;;5046715;28;20025;-73
2022/04/08 03:09:13;;;;;;;48.67;30.55;;;10.20;99.90;;;;;;5039327;28;20040;-73
2022/04/08 03:11:38;;;;;;;47.95;28.10;;;10.20;99.90;;;;;;5047869;28;20033;-73
2022/04/08 03:14:05;;;;;;;52.70;28.27;;;10.10;99.90;;;;;;5044752;28;20044;-73
2022/04/08 03:16:31;;;;;;;46.97;30.50;;;10.20;99.90;;;;;;5047605;28;20374;-73
2022/04/08 03:18:57;;;;;;;45.22;27.65;;;10.30;99.90;;;;;;5042159;28;20033;-73
2022/04/08 03:21:22;;;;;;;52.97;30.52;;;10.10;99.90;;;;;;5037002;28;20040;-73
2022/04/08 03:23:48;;;;;;;47.60;29.38;;;10.10;99.90;;;;;;5041777;28;20029;-73
2022/04/08 03:26:14;;;;;;;45.28;28.15;;;10.00;99.90;;;;;;5043761;28;20120;-73
2022/04/08 03:28:40;;;;;;;48.20;28.60;;;10.00;99.90;;;;;;5046853;28;20036;-72
2022/04/08 03:31:06;;;;;;;50.03;31.45;;;9.90;99.90;;;;;;5041132;28;20087;-73
2022/04/08 03:33:31;;;;;;;50.13;29.45;;;10.00;99.90;;;;;;5033760;28;20041;-73
2022/04/08 03:35:57;;;;;;;45.15;30.30;;;10.00;99.90;;;;;;5047271;28;20029;-73
2022/04/08 03:38:22;;;;;;;43.97;28.20;;;10.10;99.90;;;;;;5041773;28;20025;-72
2022/04/08 03:40:48;;;;;;;47.13;28.13;;;10.00;99.90;;;;;;5046889;28;20095;-73
2022/04/08 03:43:14;;;;;;;42.83;27.38;;;9.90;99.90;;;;;;5045279;28;20037;-73
2022/04/08 03:45:40;;;;;;;44.30;29.60;;;9.90;99.90;;;;;;5044636;28;20423;-73
2022/04/08 03:48:08;;;;;;;46.83;29.35;;;9.80;99.90;;;;;;5044842;28;20139;-73
2022/04/08 03:50:35;;;;;;;49.65;30.40;;;9.80;99.90;;;;;;5046900;28;20040;-73
2022/04/08 03:53:00;;;;;;;40.72;27.92;;;9.80;99.90;;;;;;5046770;28;20032;-73
2022/04/08 03:55:26;;;;;;;50.38;30.60;;;9.90;99.90;;;;;;5043508;28;20066;-73
2022/04/08 03:57:52;;;;;;;43.78;28.58;;;9.80;99.90;;;;;;5044736;28;20037;-73
2022/04/08 04:00:18;;;;;;;45.35;28.05;;;9.80;99.90;;;;;;5041338;28;20501;-73
2022/04/08 04:02:43;;;;;;;48.25;29.98;;;9.70;99.90;;;;;;5042202;28;20152;-73
2022/04/08 04:05:10;;;;;;;46.45;28.05;;;9.70;99.90;;;;;;5043962;28;20495;-72
2022/04/08 04:07:36;;;;;;;43.67;27.00;;;9.70;99.90;;;;;;5041010;28;20045;-73
2022/04/08 04:10:03;;;;;;;43.75;27.00;;;9.60;99.90;;;;;;5042313;28;20128;-72
2022/04/08 04:12:28;;;;;;;44.75;29.67;;;9.50;99.90;;;;;;5042733;28;20387;-73
2022/04/08 04:14:55;;;;;;;51.05;28.73;;;9.60;99.90;;;;;;5043766;28;20048;-73
2022/04/08 04:17:22;;;;;;;46.22;28.13;;;9.60;99.90;;;;;;5044457;28;20080;-73
2022/04/08 04:19:48;;;;;;;45.78;27.52;;;9.70;99.90;;;;;;5040734;28;20037;-73
2022/04/08 04:22:14;;;;;;;44.45;28.58;;;9.70;99.90;;;;;;5043609;28;20040;-73
2022/04/08 04:24:39;;;;;;;48.20;27.55;;;9.60;99.90;;;;;;5037931;28;20033;-73
2022/04/08 04:27:05;;;;;;;44.90;27.67;;;9.60;99.90;;;;;;5039500;28;20045;-73
2022/04/08 04:29:31;;;;;;;46.55;26.40;;;9.70;99.90;;;;;;5028958;28;20079;-73
2022/04/08 04:31:59;;;;;;;41.85;26.83;;;9.80;99.90;;;;;;5040485;28;20136;-73
2022/04/08 04:34:25;;;;;;;42.95;26.63;;;9.70;99.90;;;;;;5039639;28;20033;-73
2022/04/08 04:36:51;;;;;;;43.45;27.02;;;9.60;99.90;;;;;;5044478;28;20025;-73
2022/04/08 04:39:17;;;;;;;44.53;26.75;;;9.70;99.90;;;;;;5041135;28;20067;-73
2022/04/08 04:41:42;;;;;;;47.28;29.45;;;9.60;99.90;;;;;;5035405;28;20033;-73
2022/04/08 04:44:08;;;;;;;47.20;28.60;;;9.60;99.90;;;;;;5022942;28;20037;-73
2022/04/08 04:46:34;;;;;;;45.75;26.80;;;9.70;99.90;;;;;;5035472;28;20096;-73
2022/04/08 04:48:59;;;;;;;44.22;26.05;;;9.70;99.90;;;;;;5040263;28;20025;-73
2022/04/08 04:51:26;;;;;;;51.67;27.80;;;9.70;99.90;;;;;;5044161;28;20123;-73
2022/04/08 04:53:52;;;;;;;44.85;24.33;;;9.60;99.90;;;;;;5039884;28;20029;-73
2022/04/08 04:56:17;;;;;;;45.00;27.08;;;9.60;99.90;;;;;;5037936;28;20515;-73
2022/04/08 04:58:43;;;;;;;42.47;23.05;;;9.60;99.90;;;;;;5040888;28;20479;-73
2022/04/08 05:01:09;;;;;;;36.33;24.42;;;9.80;99.90;;;;;;5041947;28;20037;-73
2022/04/08 05:03:34;;;;;;;41.00;24.27;;;9.90;99.90;;;;;;5036775;28;20060;-73
2022/04/08 05:06:00;;;;;;;41.25;23.02;;;9.80;99.90;;;;;;5042067;28;20098;-73
2022/04/08 05:08:26;;;;;;;37.03;23.23;;;9.70;99.90;;;;;;5038403;28;20175;-72
2022/04/08 05:10:51;;;;;;;39.13;22.63;;;9.70;99.90;;;;;;5042754;28;20036;-73
2022/04/08 05:13:18;;;;;;;39.25;23.00;;;9.80;99.90;;;;;;5033438;28;20029;-73
2022/04/08 05:15:45;;;;;;;38.88;23.33;;;9.80;99.90;;;;;;5025678;28;20048;-72
2022/04/08 05:18:11;;;;;;;37.72;23.02;;;9.80;99.90;;;;;;5026543;28;20033;-72
2022/04/08 05:20:37;;;;;;;33.88;22.25;;;9.80;99.90;;;;;;5039494;28;20171;-72
2022/04/08 05:23:03;;;;;;;40.15;22.88;;;9.80;99.90;;;;;;5034042;28;20108;-73
2022/04/08 05:25:28;;;;;;;36.25;22.05;;;9.90;99.90;;;;;;5040189;28;20479;-73
2022/04/08 05:27:54;;;;;;;37.15;22.27;;;9.80;99.90;;;;;;5035152;28;20040;-73
2022/04/08 05:30:20;;;;;;;33.88;22.42;;;9.70;99.90;;;;;;5029633;28;20176;-70
2022/04/08 05:32:46;;;;;;;37.65;23.25;;;9.60;99.90;;;;;;5042546;28;20108;-73
2022/04/08 05:35:17;;;;;;;31.33;21.20;;;9.70;99.90;;;;;;5039481;28;20114;-72
2022/04/08 05:37:44;;;;;;;34.47;21.73;;;9.60;99.90;;;;;;5038463;28;20060;-71
2022/04/08 05:40:10;;;;;;;27.60;18.88;;;9.90;99.90;;;;;;5041259;28;20043;-71
2022/04/08 05:42:36;;;;;;;34.38;19.73;;;9.80;99.80;;;;;;5038478;28;20036;-71
2022/04/08 05:45:02;;;;;;;34.85;21.15;;;9.80;99.90;;;;;;5023162;28;20037;-72
2022/04/08 05:47:28;;;;;;;34.95;19.33;;;9.90;99.90;;;;;;5032513;28;20400;-72
2022/04/08 05:49:57;;;;;;;29.52;17.65;;;9.70;99.90;;;;;;5043347;28;20116;-71
2022/04/08 05:52:24;;;;;;;28.98;18.70;;;9.60;99.90;;;;;;5040455;28;20112;-71
2022/04/08 05:54:49;;;;;;;29.67;16.00;;;9.60;99.90;;;;;;5043578;28;20029;-71
2022/04/08 05:57:17;;;;;;;27.50;16.98;;;9.50;99.90;;;;;;5043122;28;20630;-71
2022/04/08 05:59:43;;;;;;;31.98;17.30;;;9.40;99.90;;;;;;5042861;28;20039;-71
2022/04/08 06:02:08;;;;;;;31.65;17.25;;;9.50;99.90;;;;;;5042254;28;20033;-71
2022/04/08 06:04:34;;;;;;;31.17;17.20;;;9.60;99.90;;;;;;5042528;28;20115;-71
2022/04/08 06:06:59;;;;;;;27.45;15.98;;;9.60;99.90;;;;;;5042268;28;20531;-71
2022/04/08 06:09:25;;;;;;;26.95;16.58;;;9.60;99.90;;;;;;5040002;28;20025;-71
2022/04/08 06:11:51;;;;;;;26.42;16.83;;;9.80;99.90;;;;;;5029095;28;20099;-71
2022/04/08 06:14:16;;;;;;;29.25;18.17;;;9.90;99.70;;;;;;5042535;28;20075;-71
2022/04/08 06:16:42;;;;;;;34.63;20.42;;;10.00;99.60;;;;;;5039395;28;20102;-70
2022/04/08 06:19:08;;;;;;;28.25;17.98;;;10.10;99.60;;;;;;5034167;28;20032;-72
2022/04/08 06:21:33;;;;;;;30.55;16.75;;;10.10;99.50;;;;;;5041931;28;20371;-72
2022/04/08 06:23:59;;;;;;;31.33;19.67;;;10.10;99.30;;;;;;5035826;28;20120;-72
2022/04/08 06:26:25;;;;;;;32.63;20.80;;;10.20;99.70;;;;;;5037140;28;20450;-73
2022/04/08 06:28:50;;;;;;;32.42;20.92;;;10.20;99.60;;;;;;5034350;28;20031;-72
2022/04/08 06:31:16;;;;;;;30.05;18.63;;;10.30;99.60;;;;;;5045278;28;20064;-73
2022/04/08 06:33:42;;;;;;;34.65;18.33;;;10.30;99.70;;;;;;5045596;28;20044;-73
2022/04/08 06:36:08;;;;;;;30.73;17.70;;;10.30;99.80;;;;;;5044834;28;20032;-72
2022/04/08 06:38:33;;;;;;;30.52;18.00;;;10.20;99.90;;;;;;5045659;28;20033;-73
2022/04/08 06:40:59;;;;;;;29.30;18.73;;;10.10;99.90;;;;;;5045964;28;20064;-73
2022/04/08 06:43:25;;;;;;;30.48;18.23;;;10.30;99.90;;;;;;5040768;28;20116;-73
2022/04/08 06:45:50;;;;;;;27.83;17.58;;;10.30;99.90;;;;;;5045304;28;20041;-73
2022/04/08 06:48:16;;;;;;;30.23;17.83;;;10.40;99.70;;;;;;5045691;28;20037;-73
2022/04/08 06:50:42;;;;;;;27.60;17.52;;;10.70;99.90;;;;;;5045703;28;20068;-73
2022/04/08 06:53:07;;;;;;;26.67;16.95;;;12.20;97.80;;;;;;5044047;28;20052;-73
2022/04/08 06:55:33;;;;;;;59.83;21.00;;;14.00;95.00;;;;;;5041888;28;20025;-73
2022/04/08 06:58:03;;;;;;;31.55;18.00;;;15.40;92.70;;;;;;5044573;28;20058;-73
2022/04/08 07:00:32;;;;;;;37.67;20.42;;;15.80;91.00;;;;;;5042709;28;20053;-73
2022/04/08 07:02:58;;;;;;;59.05;35.75;;;16.60;90.30;;;;;;5043058;28;20344;-73
2022/04/08 07:05:25;;;;;;;26.85;18.23;;;15.50;91.50;;;;;;5045238;28;20075;-73
2022/04/08 07:07:51;;;;;;;32.95;19.90;;;16.50;90.50;;;;;;5045565;28;20098;-73
2022/04/08 07:10:17;;;;;;;28.23;18.60;;;16.40;89.00;;;;;;5043244;28;20032;-73
2022/04/08 07:12:42;;;;;;;33.22;17.92;;;16.80;89.50;;;;;;5043594;28;20032;-73
2022/04/08 07:15:08;;;;;;;28.10;17.13;;;16.90;89.00;;;;;;5043494;28;20112;-73
2022/04/08 07:17:36;;;;;;;33.08;19.90;;;16.70;89.70;;;;;;5042451;28;20041;-73
2022/04/08 07:20:04;;;;;;;29.58;18.05;;;17.90;87.70;;;;;;5039350;28;20115;-73
2022/04/08 07:22:30;;;;;;;27.25;18.33;;;18.60;85.10;;;;;;5043396;28;20487;-73
2022/04/08 07:24:56;;;;;;;25.80;17.83;;;17.90;84.80;;;;;;5045597;28;20091;-74
2022/04/08 07:27:22;;;;;;;27.05;19.50;;;16.10;87.50;;;;;;5044556;28;20043;-73
2022/04/08 07:29:48;;;;;;;26.63;17.65;;;14.00;91.30;;;;;;5037225;28;20441;-73
2022/04/08 07:32:20;;;;;;;32.13;21.63;;;12.80;93.20;;;;;;5040668;28;20026;-73
2022/04/08 07:34:50;;;;;;;31.23;19.25;;;12.10;94.90;;;;;;5032517;28;20029;-73
2022/04/08 07:37:30;;;;;;;25.95;17.23;;;12.10;95.30;;;;;;5037893;28;20055;-73
2022/04/08 07:39:57;;;;;;;27.45;18.70;;;11.90;95.60;;;;;;5036816;28;20026;-72
2022/04/08 07:42:24;;;;;;;27.52;17.20;;;11.90;95.70;;;;;;5041815;28;20487;-73
2022/04/08 07:44:49;;;;;;;30.38;18.60;;;11.90;95.60;;;;;;5044210;28;20028;-73
2022/04/08 07:47:16;;;;;;;29.35;18.55;;;12.00;96.00;;;;;;5044849;28;20052;-73
2022/04/08 07:49:42;;;;;;;27.27;16.65;;;12.20;96.20;;;;;;5045437;28;20412;-73
2022/04/08 07:52:08;;;;;;;31.27;19.90;;;12.20;95.80;;;;;;5042809;28;20037;-73
2022/04/08 07:54:33;;;;;;;29.35;19.67;;;12.20;96.10;;;;;;5044711;28;20045;-73
2022/04/08 07:56:59;;;;;;;31.15;20.17;;;12.20;96.40;;;;;;5031463;28;20037;-73
2022/04/08 07:59:25;;;;;;;26.70;18.38;;;12.20;96.20;;;;;;5028084;28;20029;-73
2022/04/08 08:01:50;;;;;;;28.58;19.67;;;12.40;96.00;;;;;;5028141;28;20025;-73
2022/04/08 08:04:16;;;;;;;25.77;17.52;;;12.70;95.60;;;;;;5043864;28;20061;-73
2022/04/08 08:06:42;;;;;;;34.33;19.95;;;12.70;95.60;;;;;;5044440;28;20505;-73
2022/04/08 08:09:08;;;;;;;28.42;18.10;;;12.90;95.90;;;;;;5041424;28;20036;-73
2022/04/08 08:11:34;;;;;;;30.65;18.33;;;12.80;95.60;;;;;;5042354;28;20025;-73
2022/04/08 08:13:59;;;;;;;29.05;17.58;;;12.70;95.30;;;;;;5043961;28;20025;-73
2022/04/08 08:16:25;;;;;;;27.77;18.40;;;12.70;95.40;;;;;;5042657;28;20033;-73
2022/04/08 08:18:56;;;;;;;26.23;16.48;;;12.70;95.70;;;;;;5026545;28;20061;-73
2022/04/08 08:21:22;;;;;;;25.95;16.52;;;12.70;95.50;;;;;;5018203;28;20083;-73
2022/04/08 08:23:47;;;;;;;35.55;16.42;;;12.80;95.30;;;;;;5022411;28;20025;-73
2022/04/08 08:26:13;;;;;;;27.65;16.30;;;12.90;94.90;;;;;;5030638;28;20091;-73
2022/04/08 08:28:39;;;;;;;26.50;16.02;;;13.00;95.20;;;;;;5035116;28;20463;-73
2022/04/08 08:31:04;;;;;;;23.85;16.98;;;13.00;95.30;;;;;;5044822;28;20041;-73
2022/04/08 08:33:30;;;;;;;24.80;16.23;;;13.10;95.60;;;;;;5040007;28;20681;-73
2022/04/08 08:35:56;;;;;;;21.80;15.30;;;13.10;94.50;;;;;;5024282;28;20049;-73
2022/04/08 08:38:22;;;;;;;29.15;18.27;;;13.00;94.50;;;;;;5039650;28;20061;-73
2022/04/08 08:40:49;;;;;;;26.17;18.38;;;13.00;94.70;;;;;;5043859;28;20119;-73
2022/04/08 08:43:18;;;;;;;30.02;19.23;;;13.20;94.80;;;;;;5042058;28;20033;-73
2022/04/08 08:45:50;;;;;;;28.88;19.30;;;13.30;95.40;;;;;;5043900;28;20043;-73
2022/04/08 08:48:16;;;;;;;28.35;19.27;;;13.40;95.50;;;;;;5041338;28;20056;-73
2022/04/08 08:50:52;;;;;;;31.27;19.05;;;13.30;94.80;;;;;;5036194;28;20029;-73
2022/04/08 08:53:19;;;;;;;26.17;18.13;;;13.40;94.80;;;;;;5040990;28;20074;-73
2022/04/08 08:55:48;;;;;;;33.25;19.23;;;14.10;94.20;;;;;;5038238;28;20356;-73
2022/04/08 08:58:15;;;;;;;28.70;16.20;;;16.60;91.20;;;;;;5042187;28;20560;-73
2022/04/08 09:00:40;;;;;;;29.58;15.90;;;18.00;88.00;;;;;;5034658;28;20028;-74
2022/04/08 09:03:07;;;;;;;23.77;15.52;;;18.60;87.20;;;;;;5042218;28;20605;-73
2022/04/08 09:05:44;;;;;;;26.95;16.17;;;19.80;85.40;;;;;;5043088;28;20068;-73
2022/04/08 09:08:12;;;;;;;24.55;15.70;;;19.00;86.40;;;;;;5043625;28;20064;-74
2022/04/08 09:10:48;;;;;;;25.00;15.88;;;18.70;85.50;;;;;;5042721;28;20029;-73
2022/04/08 09:13:19;;;;;;;22.52;15.20;;;19.70;84.30;;;;;;5039275;28;20026;-74
2022/04/08 09:15:55;;;;;;;23.20;14.40;;;20.30;84.10;;;;;;5040222;28;20102;-74
2022/04/08 09:18:21;;;;;;;22.75;14.32;;;20.40;81.80;;;;;;5036094;28;20029;-74
2022/04/08 09:20:49;;;;;;;22.17;13.57;;;20.40;82.30;;;;;;5042755;28;20033;-74
2022/04/08 09:23:16;;;;;;;21.55;13.52;;;20.70;81.90;;;;;;5040811;28;20033;-74
2022/04/08 09:25:43;;;;;;;15.25;9.50;;;20.90;81.80;;;;;;5033108;28;20033;-74
2022/04/08 09:28:11;;;;;;;15.15;9.35;;;21.00;82.20;;;;;;5035529;28;20041;-74
2022/04/08 09:30:37;;;;;;;16.27;8.43;;;21.50;80.60;;;;;;5043626;28;20486;-74
2022/04/08 09:33:18;;;;;;;17.63;9.77;;;21.50;79.80;;;;;;5041504;28;20122;-74
2022/04/08 09:35:45;;;;;;;17.90;11.73;;;19.80;83.30;;;;;;5017568;28;20029;-74
2022/04/08 09:38:11;;;;;;;16.90;10.63;;;19.60;84.50;;;;;;5019303;28;20030;-74
2022/04/08 09:40:44;;;;;;;15.27;9.68;;;18.40;83.10;;;;;;5025943;28;20520;-74
2022/04/08 09:43:12;;;;;;;14.82;8.80;;;17.90;85.50;;;;;;5035785;28;20033;-74
2022/04/08 09:45:38;;;;;;;16.10;8.90;;;17.10;86.60;;;;;;5042851;28;20025;-73
2022/04/08 09:48:08;;;;;;;15.27;9.15;;;16.70;88.20;;;;;;5043405;28;20185;-73
2022/04/08 09:50:37;;;;;;;13.48;9.18;;;16.70;88.90;;;;;;5039920;28;20037;-74
2022/04/08 09:53:03;;;;;;;11.80;7.90;;;16.70;89.00;;;;;;5031890;28;20037;-74
2022/04/08 09:55:30;;;;;;;13.38;7.28;;;16.90;87.80;;;;;;5043163;28;20192;-74
2022/04/08 09:57:57;;;;;;;15.85;8.85;;;17.20;87.00;;;;;;5038754;28;20123;-74
2022/04/08 10:00:25;;;;;;;9.52;6.45;;;17.10;87.10;;;;;;5043221;28;20044;-74
2022/04/08 10:02:59;;;;;;;15.68;6.38;;;17.30;88.90;;;;;;5034668;28;20091;-74
2022/04/08 10:05:25;;;;;;;8.95;5.00;;;17.50;88.40;;;;;;5039852;28;20045;-74
2022/04/08 10:07:53;;;;;;;11.48;6.55;;;17.70;86.60;;;;;;5038754;28;20099;-74
2022/04/08 10:10:48;;;;;;;9.90;5.63;;;17.50;86.30;;;;;;5038783;28;20033;-74
2022/04/08 10:13:32;;;;;;;;;;;17.50;87.60;;;;;;5036068;28;20063;-74
2022/04/08 10:16:23;;;;;;;6.93;3.88;;;17.40;86.90;;;;;;5040893;28;20500;-74
2022/04/08 10:18:50;;;;;;;8.05;4.13;;;17.60;85.80;;;;;;5042707;28;20121;-74
2022/04/08 10:21:16;;;;;;;13.93;8.30;;;18.10;86.60;;;;;;5040246;28;20482;-74
2022/04/08 10:23:50;;;;;;;9.45;6.68;;;18.20;84.60;;;;;;5042620;28;20116;-74
2022/04/08 10:26:22;;;;;;;9.85;4.35;;;18.20;85.30;;;;;;5031973;28;20072;-74
2022/04/08 10:28:48;;;;;;;9.05;3.92;;;18.60;84.50;;;;;;5042468;28;20048;-74
2022/04/08 10:31:23;;;;;;;5.18;3.08;;;18.80;83.90;;;;;;5041404;28;20098;-74
2022/04/08 10:33:54;;;;;;;;;;;18.80;83.60;;;;;;5042519;28;20029;-74
2022/04/08 10:36:42;;;;;;;10.18;3.97;;;18.70;83.30;;;;;;5042668;28;19919;-74
2022/04/08 10:39:19;;;;;;;14.77;4.55;;;18.70;84.60;;;;;;5040167;28;20037;-74
2022/04/08 10:41:51;;;;;;;13.73;9.10;;;19.00;86.20;;;;;;5022095;28;20372;-74
2022/04/08 10:44:34;;;;;;;17.35;10.10;;;19.10;83.20;;;;;;5022045;28;20153;-74
2022/04/08 10:47:11;;;;;;;20.40;10.98;;;18.70;84.30;;;;;;5029707;28;20422;-74
2022/04/08 10:50:07;;;;;;;15.63;10.73;;;18.90;83.70;;;;;;5038890;28;20037;-75
2022/04/08 10:52:40;;;;;;;18.83;11.13;;;19.10;84.50;;;;;;5012544;28;20049;-74
2022/04/08 10:55:10;;;;;;;14.30;10.48;;;19.10;84.40;;;;;;5022914;28;20218;-74
2022/04/08 10:57:40;;;;;;;18.48;10.95;;;18.90;84.10;;;;;;5025893;28;20036;-74
2022/04/08 11:00:10;;;;;;;15.95;9.82;;;19.00;83.80;;;;;;5027674;28;20033;-74
2022/04/08 11:02:37;;;;;;;16.55;9.75;;;18.40;83.40;;;;;;5042630;28;20037;-74
2022/04/08 11:05:11;;;;;;;13.70;8.65;;;18.80;84.30;;;;;;5042526;28;20094;-74
2022/04/08 11:07:47;;;;;;;23.23;10.32;;;18.90;84.10;;;;;;5040974;28;20041;-75
2022/04/08 11:10:15;;;;;;;14.27;8.93;;;19.10;83.70;;;;;;5040256;28;20037;-74
2022/04/08 11:12:48;;;;;;;15.50;9.27;;;19.20;82.70;;;;;;5042401;28;20838;-75
2022/04/08 11:15:16;;;;;;;13.95;8.65;;;19.20;84.20;;;;;;5041308;28;20433;-73
2022/04/08 11:17:43;;;;;;;13.60;8.68;;;18.90;82.80;;;;;;5042493;28;20080;-73
2022/04/08 11:20:10;;;;;;;12.98;9.02;;;19.00;83.10;;;;;;5044733;28;20429;-73
2022/04/08 11:22:50;;;;;;;11.70;8.23;;;19.10;84.40;;;;;;5043957;28;20483;-73
2022/04/08 11:25:30;;;;;;;13.80;9.25;;;18.90;84.30;;;;;;5040661;28;20044;-73
2022/04/08 11:28:09;;;;;;;14.38;9.27;;;19.10;83.10;;;;;;5047275;28;20036;-73
2022/04/08 11:30:38;;;;;;;14.48;8.73;;;19.00;83.30;;;;;;5044639;28;20593;-73
2022/04/08 11:33:14;;;;;;;14.77;8.68;;;19.20;83.70;;;;;;5046866;28;20068;-73
2022/04/08 11:35:39;;;;;;;13.45;8.43;;;19.30;83.00;;;;;;5048705;28;20056;-73
2022/04/08 11:38:15;;;;;;;12.75;7.30;;;19.20;83.10;;;;;;5046300;28;20111;-73
2022/04/08 11:40:42;;;;;;;14.73;7.18;;;19.10;81.30;;;;;;5048125;28;20036;-73
2022/04/08 11:43:11;;;;;;;17.05;8.98;;;19.30;83.90;;;;;;5047389;28;20070;-73
2022/04/08 11:45:37;;;;;;;11.88;8.13;;;19.10;82.20;;;;;;5048462;28;20045;-73
2022/04/08 11:48:05;;;;;;;12.95;9.10;;;19.10;83.00;;;;;;5047180;28;20044;-73
2022/04/08 11:50:35;;;;;;;12.95;7.68;;;19.10;83.00;;;;;;5040628;28;20036;-73
2022/04/08 11:53:01;;;;;;;13.77;7.35;;;19.30;82.90;;;;;;5048452;28;20044;-73
2022/04/08 11:55:28;;;;;;;17.38;8.32;;;19.60;82.90;;;;;;5046242;28;20083;-73
2022/04/08 11:57:55;;;;;;;11.20;6.88;;;19.20;83.20;;;;;;5048724;28;20032;-73
2022/04/08 12:00:29;;;;;;;13.88;7.95;;;19.00;83.30;;;;;;5048465;28;20474;-73
2022/04/08 12:02:58;;;;;;;13.70;7.85;;;19.00;83.40;;;;;;5048473;28;20111;-73
2022/04/08 12:05:31;;;;;;;13.98;8.52;;;19.30;83.90;;;;;;5044920;28;20076;-73
2022/04/08 12:08:01;;;;;;;17.58;8.70;;;19.30;83.60;;;;;;5043019;28;20053;-72
2022/04/08 12:10:27;;;;;;;14.18;7.82;;;19.30;83.70;;;;;;5046581;28;20100;-73
2022/04/08 12:12:53;;;;;;;9.93;5.72;;;19.30;83.60;;;;;;5048239;28;20121;-73
2022/04/08 12:15:22;;;;;;;10.45;5.35;;;19.40;82.20;;;;;;5046384;28;20024;-73
2022/04/08 12:17:48;;;;;;;7.70;5.10;;;19.60;82.20;;;;;;5047852;28;20479;-72
2022/04/08 12:20:21;;;;;;;11.02;5.70;;;19.70;81.90;;;;;;5047468;28;20435;-73
2022/04/08 12:22:48;;;;;;;11.88;5.20;;;19.70;81.10;;;;;;5047723;28;20037;-73
2022/04/08 12:25:15;;;;;;;11.25;6.53;;;19.90;81.90;;;;;;5041681;28;20037;-73
2022/04/08 12:27:41;;;;;;;14.75;7.20;;;19.90;81.50;;;;;;5042419;28;20071;-72
2022/04/08 12:30:11;;;;;;;15.90;8.43;;;19.80;81.50;;;;;;5047089;28;20110;-73
2022/04/08 12:32:39;;;;;;;14.05;8.45;;;19.60;81.70;;;;;;5047364;28;20483;-73
2022/04/08 12:35:08;;;;;;;11.48;6.47;;;19.30;82.30;;;;;;5042235;28;20036;-73